Time;durP1;ratioP1;P1;durP2;ratioP2;P2;SDS_P1;SDS_P2;PMS_P1;PMS_P2;Temp;Humidity;BMP_temperature;BMP_pressure;BME280_temperature;BME280_humidity;BME280_pressure;Samples;Min_cycle;Max_cycle;Signal;HPM_P1;HPM_P2
2021/04/26 00:02:24;;;;;;;2.37;1.80;;;12.50;1.00;;;;;;4935208;29;20468;-80
2021/04/26 00:04:51;;;;;;;1.67;1.33;;;12.40;1.00;;;;;;4923686;29;20472;-84
2021/04/26 00:07:19;;;;;;;2.30;1.20;;;12.40;1.00;;;;;;4922514;29;20478;-82
2021/04/26 00:09:46;;;;;;;1.77;1.40;;;12.40;1.00;;;;;;4921138;29;20501;-83
2021/04/26 00:12:13;;;;;;;3.53;1.67;;;12.30;1.00;;;;;;4920233;29;21775;-81
2021/04/26 00:14:44;;;;;;;1.83;1.30;;;12.30;1.00;;;;;;4922260;29;20470;-82
2021/04/26 00:17:12;;;;;;;1.80;1.50;;;12.30;1.00;;;;;;4923032;29;20984;-79
2021/04/26 00:19:39;;;;;;;2.23;1.43;;;12.30;1.00;;;;;;4919912;29;20537;-79
2021/04/26 00:22:06;;;;;;;4.33;1.63;;;12.30;1.00;;;;;;4922269;29;20478;-82
2021/04/26 00:24:34;;;;;;;2.10;1.40;;;12.20;1.00;;;;;;4920129;29;20477;-79
2021/04/26 00:27:01;;;;;;;2.83;1.37;;;12.30;1.00;;;;;;4917549;29;20633;-83
2021/04/26 00:29:28;;;;;;;3.33;1.70;;;12.30;1.00;;;;;;4915698;29;20492;-82
2021/04/26 00:31:55;;;;;;;2.77;2.13;;;12.40;1.00;;;;;;4921662;29;20470;-82
2021/04/26 00:34:24;;;;;;;1.53;1.40;;;12.30;1.00;;;;;;4917445;29;20495;-82
2021/04/26 00:36:51;;;;;;;1.87;1.50;;;12.30;1.00;;;;;;4918664;29;20474;-80
2021/04/26 00:39:18;;;;;;;3.77;1.60;;;12.30;1.00;;;;;;4923012;29;20558;-82
2021/04/26 00:41:45;;;;;;;3.20;1.40;;;12.30;1.00;;;;;;4918677;29;20476;-83
2021/04/26 00:44:12;;;;;;;2.60;1.80;;;12.20;1.00;;;;;;4922983;29;20463;-81
2021/04/26 00:46:39;;;;;;;2.70;1.23;;;12.20;1.00;;;;;;4915578;29;20470;-83
2021/04/26 00:49:07;;;;;;;1.70;1.53;;;12.20;1.00;;;;;;4919785;29;20541;-81
2021/04/26 00:51:35;;;;;;;4.27;1.20;;;12.20;1.00;;;;;;4920845;29;20470;-83
2021/04/26 00:54:02;;;;;;;2.90;1.60;;;12.20;1.00;;;;;;4920394;29;20477;-82
2021/04/26 00:56:29;;;;;;;1.67;1.57;;;12.10;1.00;;;;;;4927221;28;21157;-81
2021/04/26 00:58:57;;;;;;;3.23;1.70;;;12.10;1.00;;;;;;4917372;29;20488;-81
2021/04/26 01:01:25;;;;;;;3.20;1.60;;;12.20;1.00;;;;;;4917162;29;20470;-80
2021/04/26 01:03:52;;;;;;;3.87;3.47;;;12.20;1.00;;;;;;4921492;29;20844;-80
2021/04/26 01:06:20;;;;;;;5.20;2.90;;;12.10;1.00;;;;;;4920838;29;20523;-82
2021/04/26 01:08:48;;;;;;;2.40;1.50;;;12.00;1.00;;;;;;4921328;29;20523;-82
2021/04/26 01:11:15;;;;;;;2.83;1.63;;;12.00;1.00;;;;;;4919308;29;20818;-79
2021/04/26 01:13:57;;;;;;;1.60;1.50;;;12.10;1.00;;;;;;4936882;28;20522;-83
2021/04/26 01:16:29;;;;;;;2.50;1.33;;;12.00;1.00;;;;;;4919343;29;20464;-79
2021/04/26 01:19:05;;;;;;;4.30;1.70;;;12.00;1.00;;;;;;4917054;29;20475;-82
2021/04/26 01:22:01;;;;;;;2.23;1.30;;;12.00;1.00;;;;;;4919585;29;20845;-81
2021/04/26 01:25:07;;;;;;;3.93;1.40;;;11.90;1.00;;;;;;4920212;29;20487;-80
2021/04/26 01:27:54;;;;;;;2.20;1.40;;;12.00;1.00;;;;;;4827879;29;20719;-80
2021/04/26 01:30:24;;;;;;;2.03;1.50;;;11.90;1.00;;;;;;4916925;29;20476;-81
2021/04/26 01:32:56;;;;;;;3.50;2.00;;;12.00;1.00;;;;;;4919998;29;20500;-83
2021/04/26 01:35:24;;;;;;;3.20;1.87;;;12.00;1.00;;;;;;4916576;29;20455;-80
2021/04/26 01:37:54;;;;;;;1.77;1.63;;;12.00;1.00;;;;;;4919488;29;20466;-78
2021/04/26 01:40:23;;;;;;;2.37;2.17;;;11.90;1.00;;;;;;4919502;29;21022;-80
2021/04/26 01:42:55;;;;;;;2.00;1.60;;;12.00;1.00;;;;;;4919070;29;20462;-79
2021/04/26 01:45:23;;;;;;;1.90;1.60;;;12.00;1.00;;;;;;4916968;29;20494;-81
2021/04/26 01:47:54;;;;;;;4.03;1.80;;;12.00;1.00;;;;;;4932194;28;20503;-79
2021/04/26 01:50:24;;;;;;;2.37;1.60;;;11.90;1.00;;;;;;4921001;29;20498;-79
2021/04/26 01:52:52;;;;;;;1.87;1.67;;;11.60;1.00;;;;;;4920405;29;20516;-83
2021/04/26 01:55:21;;;;;;;5.90;2.10;;;11.90;1.00;;;;;;4919865;29;21031;-82
2021/04/26 01:57:50;;;;;;;3.10;1.70;;;11.80;1.00;;;;;;4918474;29;21148;-81
2021/04/26 02:00:19;;;;;;;2.47;1.53;;;11.90;1.00;;;;;;4917629;29;20520;-78
2021/04/26 02:02:55;;;;;;;1.83;1.63;;;11.90;1.00;;;;;;4913675;29;20527;-82
2021/04/26 02:05:24;;;;;;;4.87;1.77;;;11.90;1.00;;;;;;4917314;29;20478;-80
2021/04/26 02:07:52;;;;;;;3.57;1.97;;;11.80;1.00;;;;;;4920577;29;20501;-81
2021/04/26 02:10:22;;;;;;;3.07;2.00;;;11.70;1.00;;;;;;4916486;29;20588;-80
2021/04/26 02:12:51;;;;;;;3.43;2.07;;;11.60;1.00;;;;;;4918317;29;20499;-82
2021/04/26 02:15:21;;;;;;;2.50;1.60;;;11.60;1.00;;;;;;4919670;29;20991;-82
2021/04/26 02:17:50;;;;;;;1.90;1.80;;;11.50;1.00;;;;;;4931445;28;20464;-80
2021/04/26 02:20:19;;;;;;;5.27;1.80;;;11.60;1.00;;;;;;4918694;29;20490;-81
2021/04/26 02:22:49;;;;;;;2.10;1.90;;;11.50;1.00;;;;;;4919160;29;20892;-79
2021/04/26 02:25:17;;;;;;;2.03;1.80;;;11.50;1.00;;;;;;4921973;29;20959;-82
2021/04/26 02:27:44;;;;;;;4.60;1.93;;;11.50;1.00;;;;;;4918096;29;20492;-80
2021/04/26 02:30:13;;;;;;;3.97;2.10;;;11.50;1.00;;;;;;4918999;29;20551;-79
2021/04/26 02:32:48;;;;;;;3.07;1.83;;;11.40;1.00;;;;;;4917851;29;20549;-82
2021/04/26 02:35:22;;;;;;;4.10;2.43;;;11.70;1.00;;;;;;4917056;29;20906;-81
2021/04/26 02:37:54;;;;;;;4.43;3.00;;;11.40;1.00;;;;;;4920119;29;21488;-81
2021/04/26 02:40:22;;;;;;;2.33;1.70;;;11.40;1.00;;;;;;4916254;29;20517;-83
2021/04/26 02:42:50;;;;;;;1.60;1.50;;;11.50;1.00;;;;;;4921450;29;20545;-83
2021/04/26 02:45:23;;;;;;;2.23;1.97;;;11.40;1.00;;;;;;4914752;29;20474;-83
2021/04/26 02:47:52;;;;;;;4.17;1.83;;;11.30;1.00;;;;;;4918013;29;20485;-81
2021/04/26 02:50:23;;;;;;;5.17;1.73;;;11.30;1.00;;;;;;4921150;29;20560;-84
2021/04/26 02:52:51;;;;;;;4.03;2.17;;;11.30;1.00;;;;;;4919512;29;20472;-82
2021/04/26 02:55:20;;;;;;;2.23;1.93;;;11.30;1.00;;;;;;4920740;29;22563;-81
2021/04/26 02:57:49;;;;;;;3.70;2.27;;;11.20;1.00;;;;;;4920993;29;20909;-83
2021/04/26 03:00:19;;;;;;;3.40;2.00;;;11.10;1.00;;;;;;4920382;29;20491;-83
2021/04/26 03:02:47;;;;;;;3.73;1.70;;;11.00;1.00;;;;;;4913861;29;20535;-83
2021/04/26 03:05:15;;;;;;;3.00;2.43;;;10.90;1.00;;;;;;4933714;28;20546;-82
2021/04/26 03:07:43;;;;;;;3.20;1.90;;;11.00;1.00;;;;;;4915733;29;20502;-83
2021/04/26 03:10:14;;;;;;;3.33;1.90;;;10.90;1.00;;;;;;4920383;29;20502;-83
2021/04/26 03:12:43;;;;;;;2.13;1.80;;;10.90;1.00;;;;;;4921487;29;20469;-82
2021/04/26 03:15:14;;;;;;;4.00;2.37;;;10.80;1.00;;;;;;4935276;29;20478;-80
2021/04/26 03:17:43;;;;;;;4.27;2.67;;;10.70;1.00;;;;;;4916518;29;20634;-82
2021/04/26 03:20:13;;;;;;;7.57;2.93;;;10.70;1.00;;;;;;4920811;29;21010;-80
2021/04/26 03:22:41;;;;;;;4.47;2.20;;;10.70;1.00;;;;;;4918650;29;20845;-85
2021/04/26 03:25:10;;;;;;;3.03;2.73;;;10.70;1.00;;;;;;4918834;29;20474;-85
2021/04/26 03:27:40;;;;;;;2.60;2.17;;;10.60;1.00;;;;;;4917916;29;20481;-83
2021/04/26 03:30:09;;;;;;;5.47;2.37;;;10.70;1.00;;;;;;4917751;29;21144;-80
2021/04/26 03:32:37;;;;;;;4.20;2.67;;;10.70;1.00;;;;;;4917361;29;22619;-81
2021/04/26 03:35:05;;;;;;;5.37;2.43;;;10.70;1.00;;;;;;4922271;29;20486;-83
2021/04/26 03:37:33;;;;;;;3.87;2.90;;;10.60;1.00;;;;;;4917784;29;20474;-83
2021/04/26 03:40:01;;;;;;;5.00;2.60;;;10.60;1.00;;;;;;4935287;28;20505;-83
2021/04/26 03:42:29;;;;;;;3.00;2.40;;;10.70;1.00;;;;;;4919459;29;20472;-82
2021/04/26 03:44:56;;;;;;;3.07;2.47;;;10.70;1.00;;;;;;4919602;29;20540;-81
2021/04/26 03:47:23;;;;;;;3.93;2.93;;;10.60;1.00;;;;;;4914789;29;20892;-82
2021/04/26 03:49:50;;;;;;;6.17;3.60;;;10.60;1.00;;;;;;4918592;29;20493;-82
2021/04/26 03:52:17;;;;;;;2.63;2.40;;;10.60;1.00;;;;;;4917208;29;20467;-82
2021/04/26 03:54:45;;;;;;;3.70;2.90;;;10.60;1.00;;;;;;4921502;29;20476;-81
2021/04/26 03:57:12;;;;;;;3.17;2.40;;;10.50;1.00;;;;;;4923539;29;20537;-83
2021/04/26 03:59:40;;;;;;;4.90;2.47;;;10.50;1.00;;;;;;4922147;29;20483;-82
2021/04/26 04:02:07;;;;;;;4.70;2.70;;;10.50;1.00;;;;;;4923046;29;20506;-84
2021/04/26 04:04:36;;;;;;;4.50;3.13;;;10.50;1.00;;;;;;4923426;29;20546;-82
2021/04/26 04:07:04;;;;;;;5.00;2.77;;;10.50;1.00;;;;;;4923875;29;20475;-82
2021/04/26 04:09:31;;;;;;;5.27;3.00;;;10.20;1.00;;;;;;4922668;29;20502;-81
2021/04/26 04:11:58;;;;;;;5.30;3.47;;;10.50;1.00;;;;;;4918055;29;20481;-79
2021/04/26 04:14:25;;;;;;;5.97;3.13;;;10.50;1.00;;;;;;4919455;29;20468;-79
2021/04/26 04:16:53;;;;;;;4.80;3.13;;;10.50;1.00;;;;;;4922410;29;20484;-81
2021/04/26 04:19:20;;;;;;;6.20;3.77;;;10.50;1.00;;;;;;4917189;29;20559;-79
2021/04/26 04:21:47;;;;;;;4.03;3.33;;;10.40;1.00;;;;;;4922966;29;20561;-82
2021/04/26 04:24:14;;;;;;;3.10;2.67;;;10.40;1.00;;;;;;4921980;29;20477;-84
2021/04/26 04:26:41;;;;;;;3.57;3.27;;;10.30;1.00;;;;;;4919323;29;20460;-78
2021/04/26 04:29:09;;;;;;;6.50;2.87;;;10.10;1.00;;;;;;4923406;29;20501;-82
2021/04/26 04:31:36;;;;;;;3.63;2.77;;;10.10;1.00;;;;;;4919353;29;21071;-82
2021/04/26 04:34:04;;;;;;;3.40;3.10;;;10.10;1.00;;;;;;4924313;29;20490;-82
2021/04/26 04:36:31;;;;;;;5.13;2.87;;;10.10;1.00;;;;;;4919558;29;20474;-81
2021/04/26 04:38:58;;;;;;;3.40;3.10;;;10.20;1.00;;;;;;4919509;29;20659;-81
2021/04/26 04:41:26;;;;;;;4.63;3.30;;;10.20;1.00;;;;;;4921879;29;20525;-82
2021/04/26 04:43:54;;;;;;;3.80;2.67;;;10.20;1.00;;;;;;4921882;29;20473;-81
2021/04/26 04:46:21;;;;;;;3.87;3.47;;;10.10;1.00;;;;;;4921922;29;20499;-82
2021/04/26 04:48:49;;;;;;;6.30;4.13;;;10.10;1.00;;;;;;4921226;29;20553;-81
2021/04/26 04:51:17;;;;;;;3.93;3.50;;;10.10;1.00;;;;;;4921260;29;20529;-80
2021/04/26 04:53:44;;;;;;;5.40;2.87;;;10.10;1.00;;;;;;4919895;29;20499;-80
2021/04/26 04:56:11;;;;;;;4.27;3.10;;;10.10;1.00;;;;;;4921601;29;20473;-81
2021/04/26 04:58:38;;;;;;;3.87;3.20;;;10.10;1.00;;;;;;4919624;29;20487;-80
2021/04/26 05:01:06;;;;;;;3.33;2.77;;;10.00;1.00;;;;;;4934871;28;20467;-81
2021/04/26 05:03:33;;;;;;;4.33;3.73;;;9.90;1.00;;;;;;4920220;29;20474;-79
2021/04/26 05:06:00;;;;;;;3.47;2.97;;;10.00;1.00;;;;;;4919728;29;21005;-79
2021/04/26 05:08:29;;;;;;;3.53;3.00;;;10.00;1.00;;;;;;4918889;28;21185;-80
2021/04/26 05:10:56;;;;;;;6.13;3.00;;;10.00;1.00;;;;;;4920561;29;20224;-77
2021/04/26 05:13:24;;;;;;;6.17;4.70;;;10.20;1.00;;;;;;4932222;28;20526;-78
2021/04/26 05:15:51;;;;;;;5.00;3.50;;;10.10;1.00;;;;;;4925341;29;20553;-80
2021/04/26 05:18:18;;;;;;;6.35;4.63;;;10.10;1.00;;;;;;4919262;29;20640;-79
2021/04/26 05:20:45;;;;;;;5.77;3.80;;;10.10;1.00;;;;;;4922381;29;20202;-80
2021/04/26 05:23:13;;;;;;;5.07;3.23;;;10.00;1.00;;;;;;4923102;29;20472;-79
2021/04/26 05:25:41;;;;;;;3.30;2.90;;;10.30;1.00;;;;;;4934870;28;20481;-80
2021/04/26 05:28:08;;;;;;;7.07;3.80;;;10.20;1.00;;;;;;4916319;29;20909;-78
2021/04/26 05:30:35;;;;;;;3.83;2.83;;;10.10;1.00;;;;;;4919847;29;20467;-77
2021/04/26 05:33:02;;;;;;;4.50;2.83;;;10.20;1.00;;;;;;4915949;29;20477;-76
2021/04/26 05:35:29;;;;;;;4.30;2.83;;;10.20;1.00;;;;;;4919633;29;20700;-79
2021/04/26 05:38:07;;;;;;;4.57;3.27;;;10.20;1.00;;;;;;4923528;29;20745;-79
2021/04/26 05:40:35;;;;;;;4.43;2.60;;;10.30;1.00;;;;;;4914912;29;20479;-79
2021/04/26 05:43:03;;;;;;;4.47;2.80;;;10.30;1.00;;;;;;4914377;29;20956;-78
2021/04/26 05:45:30;;;;;;;3.90;3.00;;;10.30;1.00;;;;;;4907089;29;20465;-79
2021/04/26 05:47:57;;;;;;;4.17;2.67;;;10.30;1.00;;;;;;4909139;29;21008;-78
2021/04/26 05:50:25;;;;;;;3.50;3.00;;;10.40;1.00;;;;;;4904298;29;20539;-77
2021/04/26 05:52:54;;;;;;;7.10;3.27;;;10.30;1.00;;;;;;4918183;29;20479;-78
2021/04/26 05:55:22;;;;;;;2.80;2.40;;;10.30;1.00;;;;;;4916087;29;20470;-78
2021/04/26 05:57:49;;;;;;;4.33;3.80;;;10.40;1.00;;;;;;4922521;29;20486;-78
2021/04/26 06:00:19;;;;;;;2.77;2.30;;;10.50;1.00;;;;;;4911978;29;20497;-79
2021/04/26 06:02:46;;;;;;;3.13;2.50;;;10.50;1.00;;;;;;4924539;29;20466;-79
2021/04/26 06:05:13;;;;;;;4.80;3.07;;;10.60;1.00;;;;;;4922393;29;20487;-79
2021/04/26 06:07:41;;;;;;;6.67;2.87;;;10.60;1.00;;;;;;4926314;28;20881;-79
2021/04/26 06:10:10;;;;;;;6.13;3.57;;;10.70;1.00;;;;;;4923188;29;20579;-76
2021/04/26 06:12:37;;;;;;;5.30;3.50;;;10.80;1.00;;;;;;4920971;29;20485;-76
2021/04/26 06:15:06;;;;;;;3.10;2.60;;;10.90;1.00;;;;;;4924182;29;20479;-78
2021/04/26 06:17:34;;;;;;;3.27;2.57;;;10.90;1.00;;;;;;4914600;29;20483;-77
2021/04/26 06:20:01;;;;;;;4.90;3.50;;;11.10;1.00;;;;;;4923428;29;20493;-75
2021/04/26 06:22:28;;;;;;;4.53;3.23;;;11.30;1.00;;;;;;4919810;29;21034;-77
2021/04/26 06:24:56;;;;;;;5.03;3.50;;;11.50;1.00;;;;;;4928115;29;20459;-78
2021/04/26 06:27:23;;;;;;;6.47;3.00;;;11.80;1.00;;;;;;4921046;29;20475;-77
2021/04/26 06:29:50;;;;;;;3.57;3.27;;;12.10;1.00;;;;;;4924564;29;20490;-77
2021/04/26 06:32:17;;;;;;;5.23;2.67;;;12.30;1.00;;;;;;4924721;29;20736;-80
2021/04/26 06:34:45;;;;;;;3.53;2.20;;;12.60;1.00;;;;;;4923211;29;20454;-78
2021/04/26 06:37:13;;;;;;;5.30;3.67;;;12.80;1.00;;;;;;4923007;29;20530;-77
2021/04/26 06:39:40;;;;;;;3.33;3.03;;;13.10;1.00;;;;;;4924211;29;20485;-76
2021/04/26 06:42:07;;;;;;;5.83;3.40;;;13.30;1.00;;;;;;4920998;29;20525;-77
2021/04/26 06:44:34;;;;;;;7.00;3.23;;;13.60;1.00;;;;;;4922854;29;20497;-78
2021/04/26 06:47:01;;;;;;;4.40;2.93;;;13.80;1.00;;;;;;4921961;29;20473;-77
2021/04/26 06:49:28;;;;;;;6.30;3.30;;;13.80;1.00;;;;;;4922306;29;20503;-78
2021/04/26 06:51:56;;;;;;;6.57;3.03;;;14.00;1.00;;;;;;4915265;29;21248;-78
2021/04/26 06:54:23;;;;;;;4.23;2.80;;;14.20;1.00;;;;;;4918757;29;20480;-78
2021/04/26 06:56:51;;;;;;;4.37;3.37;;;14.50;1.00;;;;;;4918380;29;20531;-79
2021/04/26 06:59:18;;;;;;;7.77;3.20;;;14.50;1.00;;;;;;4917996;29;20548;-78
2021/04/26 07:01:45;;;;;;;6.20;2.97;;;14.90;1.00;;;;;;4918615;29;20885;-78
2021/04/26 07:04:13;;;;;;;6.30;3.13;;;15.00;1.00;;;;;;4934585;28;20827;-76
2021/04/26 07:06:40;;;;;;;3.97;3.60;;;15.00;1.00;;;;;;4921124;29;20500;-78
2021/04/26 07:09:08;;;;;;;5.40;3.20;;;15.20;1.00;;;;;;4921136;29;20583;-79
2021/04/26 07:11:36;;;;;;;3.73;3.13;;;15.20;1.00;;;;;;4923525;29;20491;-80
2021/04/26 07:14:04;;;;;;;4.53;2.77;;;15.20;1.00;;;;;;4921743;29;20471;-79
2021/04/26 07:16:31;;;;;;;3.30;2.90;;;15.40;1.00;;;;;;4913145;29;20476;-79
2021/04/26 07:18:59;;;;;;;3.07;2.77;;;15.50;1.00;;;;;;4914963;29;20556;-75
2021/04/26 07:21:26;;;;;;;3.10;2.80;;;15.90;1.00;;;;;;4919922;29;20461;-76
2021/04/26 07:23:53;;;;;;;3.20;2.90;;;16.10;1.00;;;;;;4919112;29;20486;-78
2021/04/26 07:26:23;;;;;;;3.00;2.80;;;16.40;1.00;;;;;;4918770;29;20464;-75
2021/04/26 07:28:50;;;;;;;3.03;2.83;;;16.30;1.00;;;;;;4912851;29;20497;-76
2021/04/26 07:31:17;;;;;;;2.87;2.57;;;16.30;1.00;;;;;;4923487;29;20496;-75
2021/04/26 07:33:44;;;;;;;5.40;3.00;;;16.50;1.00;;;;;;4924533;29;20487;-76
2021/04/26 07:36:12;;;;;;;3.20;2.90;;;16.60;1.00;;;;;;4920988;29;20461;-77
2021/04/26 07:38:39;;;;;;;3.97;2.57;;;16.30;1.00;;;;;;4928168;29;21017;-77
2021/04/26 07:41:07;;;;;;;5.20;3.07;;;16.50;1.00;;;;;;4925974;29;20467;-77
2021/04/26 07:43:35;;;;;;;6.80;3.17;;;16.60;1.00;;;;;;4928109;29;20468;-77
2021/04/26 07:46:02;;;;;;;4.33;3.13;;;16.70;1.00;;;;;;4928053;29;20446;-77
2021/04/26 07:48:29;;;;;;;2.77;2.57;;;16.70;1.00;;;;;;4920177;29;20525;-75
2021/04/26 07:50:56;;;;;;;5.83;2.90;;;16.70;1.00;;;;;;4925712;29;20464;-75
2021/04/26 07:53:24;;;;;;;4.70;3.50;;;16.70;1.00;;;;;;4924595;29;20469;-76
2021/04/26 07:55:51;;;;;;;4.10;3.40;;;16.60;1.00;;;;;;4922677;29;20468;-77
2021/04/26 07:58:18;;;;;;;4.57;3.13;;;16.30;1.00;;;;;;4925444;29;20483;-77
2021/04/26 08:00:46;;;;;;;5.73;3.73;;;16.10;1.00;;;;;;4919605;29;20470;-75
2021/04/26 08:03:15;;;;;;;3.40;2.70;;;16.00;1.00;;;;;;4922737;29;20900;-75
2021/04/26 08:05:42;;;;;;;3.80;3.50;;;15.80;1.00;;;;;;4922654;29;20465;-75
2021/04/26 08:08:09;;;;;;;3.00;2.70;;;15.70;1.00;;;;;;4923425;28;20462;-74
2021/04/26 08:10:37;;;;;;;3.63;3.13;;;15.70;1.00;;;;;;4925242;29;20515;-77
2021/04/26 08:13:05;;;;;;;5.00;3.50;;;15.70;1.00;;;;;;4924139;29;20461;-77
2021/04/26 08:15:32;;;;;;;4.43;3.53;;;15.60;1.00;;;;;;4923507;29;20529;-75
2021/04/26 08:18:00;;;;;;;4.00;3.13;;;15.50;1.00;;;;;;4918819;29;20476;-76
2021/04/26 08:20:28;;;;;;;3.37;2.93;;;15.50;1.00;;;;;;4921911;29;20453;-79
2021/04/26 08:22:55;;;;;;;4.53;3.13;;;15.40;1.00;;;;;;4923109;29;20630;-77
2021/04/26 08:25:23;;;;;;;4.43;3.17;;;15.30;1.00;;;;;;4922466;29;20483;-78
2021/04/26 08:27:50;;;;;;;3.47;3.17;;;15.40;1.00;;;;;;4913840;29;20457;-78
2021/04/26 08:30:17;;;;;;;3.63;3.00;;;15.40;1.00;;;;;;4919558;29;21000;-74
2021/04/26 08:32:45;;;;;;;4.10;3.50;;;15.50;1.00;;;;;;4921888;29;20472;-79
2021/04/26 08:35:13;;;;;;;4.97;3.07;;;15.40;1.00;;;;;;4923647;29;20482;-79
2021/04/26 08:37:40;;;;;;;3.23;2.93;;;15.50;1.00;;;;;;4920713;29;20473;-78
2021/04/26 08:40:09;;;;;;;3.80;3.27;;;15.70;1.00;;;;;;4924420;29;20554;-77
2021/04/26 08:42:36;;;;;;;5.33;3.53;;;15.90;1.00;;;;;;4923424;29;20492;-77
2021/04/26 08:45:05;;;;;;;7.40;3.40;;;15.80;1.00;;;;;;4923339;29;20924;-78
2021/04/26 08:47:33;;;;;;;3.70;3.00;;;15.70;1.00;;;;;;4921440;29;21861;-79
2021/04/26 08:50:01;;;;;;;4.00;3.60;;;15.70;1.00;;;;;;4924432;29;20489;-77
2021/04/26 08:52:29;;;;;;;3.90;3.10;;;15.70;1.00;;;;;;4923048;29;20552;-78
2021/04/26 08:54:58;;;;;;;3.60;3.30;;;15.50;1.00;;;;;;4921112;29;20465;-71
2021/04/26 08:57:25;;;;;;;3.53;2.70;;;15.50;1.00;;;;;;4920790;29;20457;-77
2021/04/26 08:59:52;;;;;;;3.57;3.27;;;15.60;1.00;;;;;;4924602;29;20477;-81
2021/04/26 09:02:19;;;;;;;2.80;2.50;;;15.60;1.00;;;;;;4936434;28;21288;-79
2021/04/26 09:04:49;;;;;;;5.00;3.47;;;15.50;1.00;;;;;;4922315;29;20510;-78
2021/04/26 09:07:20;;;;;;;3.50;3.20;;;15.60;1.00;;;;;;4923320;29;20907;-79
2021/04/26 09:09:50;;;;;;;5.70;3.00;;;15.70;1.00;;;;;;4919167;29;20720;-79
2021/04/26 09:12:25;;;;;;;134.00;50.80;;;15.80;1.00;;;;;;4922272;29;20512;-78
2021/04/26 09:14:54;;;;;;;7.53;4.83;;;16.00;1.00;;;;;;4923691;29;20473;-79
2021/04/26 09:17:33;;;;;;;4.97;3.13;;;16.10;1.00;;;;;;4940695;28;20966;-78
2021/04/26 09:20:20;;;;;;;5.87;3.50;;;16.30;1.00;;;;;;4923414;29;20959;-78
2021/04/26 09:22:50;;;;;;;4.97;4.43;;;16.30;1.00;;;;;;4923168;29;20458;-78
2021/04/26 09:25:33;;;;;;;4.63;3.00;;;16.50;1.00;;;;;;4924090;29;20449;-80
2021/04/26 09:28:04;;;;;;;4.63;2.87;;;16.60;1.00;;;;;;4920410;29;20466;-75
2021/04/26 09:30:41;;;;;;;6.00;3.43;;;16.70;1.00;;;;;;4924689;29;21025;-75
2021/04/26 09:33:17;;;;;;;7.10;3.60;;;16.70;1.00;;;;;;4926866;29;20461;-76
2021/04/26 09:35:45;;;;;;;4.13;2.92;;;16.70;1.00;;;;;;4923630;29;20445;-75
2021/04/26 09:38:31;;;;;;;4.07;3.77;;;16.80;1.00;;;;;;4922909;29;20201;-78
2021/04/26 09:41:19;;;;;;;4.20;3.53;;;16.80;1.00;;;;;;4917797;29;20465;-80
2021/04/26 09:43:48;;;;;;;3.90;2.80;;;16.80;1.00;;;;;;4932864;29;20464;-79
2021/04/26 09:46:16;;;;;;;3.97;3.00;;;16.90;1.00;;;;;;4921617;29;20894;-77
2021/04/26 09:48:43;;;;;;;7.07;3.80;;;16.90;1.00;;;;;;4924767;29;20523;-79
2021/04/26 09:51:17;;;;;;;5.73;4.03;;;17.00;1.00;;;;;;4919775;29;20467;-78
2021/04/26 09:53:54;;;;;;;7.40;3.23;;;16.90;2.70;;;;;;4920887;29;20461;-76
2021/04/26 09:56:24;;;;;;;4.00;3.40;;;16.90;1.00;;;;;;4918551;29;20557;-76
2021/04/26 09:58:54;;;;;;;5.57;3.43;;;17.00;1.00;;;;;;4919012;29;20492;-77
2021/04/26 10:01:24;;;;;;;5.33;3.87;;;16.90;1.00;;;;;;4916697;29;20566;-77
2021/04/26 10:03:52;;;;;;;4.03;3.60;;;17.10;1.00;;;;;;4919441;29;20458;-77
2021/04/26 10:06:24;;;;;;;2.53;2.40;;;17.10;1.00;;;;;;4919447;29;20480;-75
2021/04/26 10:08:53;;;;;;;4.17;3.23;;;17.10;1.00;;;;;;4922467;29;20496;-80
2021/04/26 10:11:23;;;;;;;5.47;3.20;;;17.10;1.00;;;;;;4923159;29;20471;-76
2021/04/26 10:13:58;;;;;;;5.23;3.57;;;17.20;1.00;;;;;;4923084;29;20469;-80
2021/04/26 10:16:36;;;;;;;5.83;4.10;;;17.20;1.00;;;;;;4926707;29;20470;-77
2021/04/26 10:19:06;;;;;;;6.07;3.70;;;17.20;1.00;;;;;;4919496;29;20571;-75
2021/04/26 10:21:35;;;;;;;5.37;3.17;;;17.10;1.00;;;;;;4916812;29;20457;-78
2021/04/26 10:24:15;;;;;;;3.23;2.93;;;17.20;1.00;;;;;;4920244;29;20465;-76
2021/04/26 10:26:48;;;;;;;4.07;3.67;;;17.10;1.00;;;;;;4922253;29;20462;-80
2021/04/26 10:29:19;;;;;;;4.10;2.87;;;16.90;1.00;;;;;;4926670;29;20493;-80
2021/04/26 10:32:07;;;;;;;3.20;2.73;;;17.00;1.00;;;;;;4923533;29;20531;-83
2021/04/26 10:34:38;;;;;;;2.80;2.60;;;17.20;1.00;;;;;;4921062;29;20478;-80
2021/04/26 10:37:19;;;;;;;3.63;3.10;;;17.30;1.00;;;;;;4926063;29;20549;-81
2021/04/26 10:40:05;;;;;;;3.57;3.23;;;17.20;1.00;;;;;;4937332;29;20486;-80
2021/04/26 10:42:35;;;;;;;4.47;3.50;;;17.10;1.00;;;;;;4925494;29;20465;-81
2021/04/26 10:45:04;;;;;;;3.83;2.83;;;17.10;1.00;;;;;;4920009;29;20460;-83
2021/04/26 10:47:38;;;;;;;4.30;3.10;;;17.20;1.00;;;;;;4920486;29;21052;-80
2021/04/26 10:50:36;;;;;;;4.23;3.13;;;17.20;1.00;;;;;;4923340;29;20522;-84
2021/04/26 10:53:05;;;;;;;6.67;3.50;;;17.30;1.00;;;;;;4925472;29;20846;-82
2021/04/26 10:55:55;;;;;;;2.90;2.70;;;17.30;1.00;;;;;;4926391;29;20489;-80
2021/04/26 10:58:38;;;;;;;8.40;3.53;;;17.50;1.00;;;;;;4921108;29;20485;-80
2021/04/26 11:01:07;;;;;;;3.40;3.07;;;17.50;1.00;;;;;;4923824;29;20889;-84
2021/04/26 11:03:41;;;;;;;4.30;3.87;;;17.60;1.00;;;;;;4924835;29;20468;-81
2021/04/26 11:06:17;;;;;;;3.43;3.13;;;17.60;1.00;;;;;;4924994;29;20468;-79
2021/04/26 11:09:06;;;;;;;3.87;3.50;;;17.50;1.00;;;;;;4925309;29;20482;-83
2021/04/26 11:11:42;;;;;;;4.40;4.10;;;17.50;1.00;;;;;;4925835;29;20556;-82
2021/04/26 11:14:22;;;;;;;6.07;5.47;;;17.40;1.00;;;;;;4924478;29;20999;-79
2021/04/26 11:17:03;;;;;;;7.90;6.10;;;17.40;1.00;;;;;;4919498;29;20936;-81
2021/04/26 11:19:32;;;;;;;5.60;4.40;;;17.50;1.00;;;;;;4922640;29;20486;-80
2021/04/26 11:22:04;;;;;;;6.23;4.60;;;17.50;1.00;;;;;;4922684;29;20459;-78
2021/04/26 11:25:03;;;;;;;6.27;4.37;;;17.70;1.00;;;;;;4921417;29;20456;-80
2021/04/26 11:27:32;;;;;;;4.57;3.80;;;17.90;1.00;;;;;;4919986;29;20459;-80
2021/04/26 11:30:30;;;;;;;5.03;3.93;;;17.90;1.00;;;;;;4921517;29;20488;-79
2021/04/26 11:33:20;;;;;;;4.90;4.47;;;17.90;1.00;;;;;;4921385;29;20478;-79
2021/04/26 11:36:16;;;;;;;4.60;4.00;;;17.90;1.00;;;;;;4918470;29;20475;-77
2021/04/26 11:38:45;;;;;;;5.37;3.90;;;17.80;1.00;;;;;;4919954;29;20490;-80
2021/04/26 11:41:13;;;;;;;3.93;3.57;;;17.80;1.00;;;;;;4919378;29;20463;-81
2021/04/26 11:43:52;;;;;;;6.20;3.13;;;17.90;1.00;;;;;;4920702;29;20468;-77
2021/04/26 11:46:31;;;;;;;7.83;3.00;;;18.00;1.00;;;;;;4925242;29;20491;-78
2021/04/26 11:49:19;;;;;;;5.22;3.58;;;18.10;1.00;;;;;;4927499;29;20827;-75
2021/04/26 11:51:48;;;;;;;6.20;3.40;;;18.10;1.00;;;;;;4933033;29;20219;-74
2021/04/26 11:54:17;;;;;;;4.13;3.70;;;18.20;1.00;;;;;;4924107;29;20464;-78
2021/04/26 11:57:00;;;;;;;3.93;2.87;;;18.30;1.00;;;;;;4926071;29;20467;-78
2021/04/26 11:59:27;;;;;;;4.73;4.33;;;18.30;1.00;;;;;;4931091;29;20574;-80
2021/04/26 12:01:56;;;;;;;4.83;3.50;;;18.30;1.40;;;;;;4926477;28;21001;-76
2021/04/26 12:04:36;;;;;;;5.80;3.80;;;18.40;1.60;;;;;;4924474;29;20486;-78
2021/04/26 12:07:05;;;;;;;5.37;3.73;;;18.50;1.00;;;;;;4925088;29;20464;-80
2021/04/26 12:09:32;;;;;;;3.77;3.40;;;18.60;3.20;;;;;;4941277;28;20482;-81
2021/04/26 12:12:01;;;;;;;2.90;2.70;;;18.60;2.70;;;;;;4921335;28;20708;-78
2021/04/26 12:14:29;;;;;;;3.50;3.10;;;18.70;2.30;;;;;;4923557;29;20551;-78
2021/04/26 12:17:16;;;;;;;3.23;2.93;;;18.80;4.00;;;;;;4922040;29;20459;-80
2021/04/26 12:19:43;;;;;;;3.43;3.13;;;18.80;3.20;;;;;;4927079;28;20478;-80
2021/04/26 12:22:11;;;;;;;4.13;3.67;;;18.90;4.00;;;;;;4927028;29;20856;-80
2021/04/26 12:24:41;;;;;;;5.27;3.60;;;18.80;4.20;;;;;;4924559;28;20466;-78
2021/04/26 12:27:10;;;;;;;3.73;2.50;;;18.90;5.00;;;;;;4920870;29;20566;-80
2021/04/26 12:29:37;;;;;;;4.67;2.90;;;18.90;4.80;;;;;;4921019;29;20983;-78
2021/04/26 12:32:13;;;;;;;3.00;2.70;;;18.90;5.20;;;;;;4920813;29;20496;-79
2021/04/26 12:34:56;;;;;;;3.33;2.67;;;18.90;1.60;;;;;;4921540;29;20505;-79
2021/04/26 12:37:25;;;;;;;2.47;2.27;;;18.80;1.00;;;;;;4936957;29;20846;-82
2021/04/26 12:39:54;;;;;;;2.50;2.30;;;18.80;1.00;;;;;;4920728;29;20480;-78
2021/04/26 12:42:22;;;;;;;7.33;2.87;;;18.70;1.00;;;;;;4923229;29;20452;-79
2021/04/26 12:44:49;;;;;;;3.20;2.03;;;18.70;1.00;;;;;;4923897;29;21011;-80
2021/04/26 12:47:22;;;;;;;5.60;2.30;;;18.80;1.00;;;;;;4926182;29;20509;-78
2021/04/26 12:50:17;;;;;;;3.10;2.80;;;18.80;1.00;;;;;;4935712;29;20748;-80
2021/04/26 12:53:06;;;;;;;3.47;3.20;;;18.90;1.30;;;;;;4923036;29;20457;-85
2021/04/26 12:55:34;;;;;;;4.00;3.40;;;18.90;1.50;;;;;;4925319;29;21003;-80
2021/04/26 12:58:07;;;;;;;3.23;2.93;;;18.90;1.50;;;;;;4923755;29;20958;-79
2021/04/26 13:00:39;;;;;;;4.60;2.83;;;19.00;3.40;;;;;;4913254;29;20448;-77
2021/04/26 13:03:27;;;;;;;2.80;2.60;;;19.10;4.80;;;;;;4926304;29;20456;-79
2021/04/26 13:05:56;;;;;;;3.90;3.50;;;19.20;4.50;;;;;;4923397;29;20781;-81
2021/04/26 13:08:24;;;;;;;3.50;3.07;;;19.10;2.90;;;;;;4922729;29;20494;-79
2021/04/26 13:10:53;;;;;;;3.37;3.07;;;19.10;2.70;;;;;;4924327;29;20484;-80
2021/04/26 13:13:20;;;;;;;5.37;3.03;;;19.00;2.00;;;;;;4926513;29;20471;-81
2021/04/26 13:15:48;;;;;;;4.13;2.37;;;19.00;2.20;;;;;;4920453;29;20960;-81